createdAt,value
2017-01-30T00:00:21.323Z,5.23
2017-01-30T00:01:21.726Z,5.23
2017-01-30T00:02:21.748Z,5.23
2017-01-30T00:03:21.360Z,5.18
2017-01-30T00:04:21.769Z,5.14
2017-01-30T00:05:21.772Z,5.23
2017-01-30T00:06:21.784Z,5.21
2017-01-30T00:07:21.796Z,5.14
2017-01-30T00:08:21.810Z,5.2
2017-01-30T00:09:21.849Z,5.2
2017-01-30T00:10:21.431Z,5.29
2017-01-30T00:11:21.833Z,5.2
2017-01-30T00:12:21.854Z,5.17
2017-01-30T00:13:21.859Z,5.25
2017-01-30T00:14:21.872Z,5.2
2017-01-30T00:15:21.882Z,5.23
2017-01-30T00:16:21.895Z,5.23
2017-01-30T00:17:21.905Z,5.25
2017-01-30T00:18:21.922Z,5.25
2017-01-30T00:19:21.927Z,5.26
2017-01-30T00:20:21.941Z,5.23
2017-01-30T00:21:21.949Z,5.18
2017-01-30T00:22:21.961Z,5.21
2017-01-30T00:23:21.973Z,5.21
2017-01-30T00:24:21.980Z,5.18
2017-01-30T00:25:21.987Z,5.2
2017-01-30T00:26:22.002Z,5.2
2017-01-30T00:27:21.223Z,5.23
2017-01-30T00:28:22.022Z,5.17
2017-01-30T00:29:22.040Z,5.23
2017-01-30T00:30:22.040Z,5.23
2017-01-30T00:31:22.060Z,5.18
2017-01-30T00:32:21.668Z,5.23
2017-01-30T00:33:22.086Z,5.2
2017-01-30T00:34:22.084Z,5.2
2017-01-30T00:35:22.100Z,5.14
2017-01-30T00:36:22.104Z,5.25
2017-01-30T00:37:22.117Z,5.2
2017-01-30T00:38:22.135Z,5.18
2017-01-30T00:39:22.137Z,5.18
2017-01-30T00:40:22.153Z,5.2
2017-01-30T00:41:22.168Z,5.23
2017-01-30T00:42:22.179Z,5.18
2017-01-30T00:43:22.182Z,5.2
2017-01-30T00:44:22.201Z,5.2
2017-01-30T00:45:22.208Z,5.14
2017-01-30T00:46:22.218Z,5.11
2017-01-30T00:47:22.228Z,5.14
2017-01-30T00:48:22.233Z,5.21
2017-01-30T00:49:22.251Z,5.14
2017-01-30T00:50:22.261Z,5.1
2017-01-30T00:51:22.273Z,5.11
2017-01-30T00:52:22.281Z,5.12
2017-01-30T00:53:21.896Z,5.1
2017-01-30T00:54:22.305Z,5.12
2017-01-30T00:55:22.310Z,5.1
2017-01-30T00:56:22.328Z,5.14
2017-01-30T00:57:22.329Z,5.12
2017-01-30T00:58:22.347Z,5.14
2017-01-30T00:59:22.357Z,5.1
2017-01-30T01:00:22.365Z,5.11
2017-01-30T01:01:22.378Z,5.14
2017-01-30T01:02:22.390Z,5.07
2017-01-30T01:03:22.405Z,5.08
2017-01-30T01:04:22.409Z,5.12
2017-01-30T01:05:22.425Z,5.14
2017-01-30T01:06:22.431Z,5.08
2017-01-30T01:07:22.445Z,5.11
2017-01-30T01:08:22.453Z,5.1
2017-01-30T01:09:22.471Z,5.04
2017-01-30T01:10:22.477Z,5.11
2017-01-30T01:11:22.485Z,5.07
2017-01-30T01:12:22.495Z,5.08
2017-01-30T01:13:22.111Z,5.12
2017-01-30T01:14:22.518Z,5.08
2017-01-30T01:15:22.529Z,5.08
2017-01-30T01:16:22.541Z,5.11
2017-01-30T01:17:22.552Z,5.08
2017-01-30T01:18:22.555Z,5.07
2017-01-30T01:19:22.576Z,5.1
2017-01-30T01:20:22.582Z,5.05
2017-01-30T01:21:22.592Z,5.08
2017-01-30T01:22:22.605Z,5.04
2017-01-30T01:23:22.617Z,5.07
2017-01-30T01:24:22.621Z,5.07
2017-01-30T01:25:22.638Z,5.02
2017-01-30T01:26:22.651Z,4.96
2017-01-30T01:27:22.665Z,5.05
2017-01-30T01:28:22.670Z,4.99
2017-01-30T01:29:22.281Z,5.04
2017-01-30T01:30:22.698Z,4.97
2017-01-30T01:31:22.697Z,5
2017-01-30T01:32:22.718Z,4.93
2017-01-30T01:33:22.725Z,5.04
2017-01-30T01:34:22.732Z,4.97
2017-01-30T01:35:22.745Z,4.92
2017-01-30T01:36:22.754Z,5.05
2017-01-30T01:37:22.761Z,5.04
2017-01-30T01:38:22.778Z,5.05
2017-01-30T01:39:22.787Z,4.97
2017-01-30T01:40:22.793Z,5
2017-01-30T01:41:22.804Z,5.02
2017-01-30T01:42:22.819Z,5.04
2017-01-30T01:43:22.835Z,5.1
2017-01-30T01:44:22.843Z,4.96
2017-01-30T01:45:22.856Z,4.96
2017-01-30T01:46:22.861Z,4.94
2017-01-30T01:47:22.869Z,4.89
2017-01-30T01:48:22.902Z,4.97
2017-01-30T01:49:22.894Z,4.92
2017-01-30T01:50:22.901Z,4.99
2017-01-30T01:51:22.928Z,4.92
2017-01-30T01:52:22.924Z,4.93
2017-01-30T01:53:22.930Z,4.92
2017-01-30T01:54:22.937Z,4.94
2017-01-30T01:55:22.943Z,4.9
2017-01-30T01:56:22.955Z,4.94
2017-01-30T01:57:22.968Z,4.92
2017-01-30T01:58:22.986Z,4.9
2017-01-30T01:59:22.989Z,4.93
2017-01-30T02:00:22.604Z,4.89
2017-01-30T02:01:22.619Z,4.84
2017-01-30T02:02:23.020Z,4.9
2017-01-30T02:03:23.035Z,4.94
2017-01-30T02:04:23.043Z,4.86
2017-01-30T02:05:23.054Z,4.92
2017-01-30T02:06:22.672Z,4.8
2017-01-30T02:07:23.076Z,4.9
2017-01-30T02:08:23.084Z,4.82
2017-01-30T02:09:23.096Z,4.8
2017-01-30T02:10:23.138Z,4.87
2017-01-30T02:11:23.119Z,4.87
2017-01-30T02:12:23.129Z,4.84
2017-01-30T02:13:23.139Z,4.82
2017-01-30T02:14:23.150Z,4.86
2017-01-30T02:15:23.166Z,4.82
2017-01-30T02:16:23.176Z,4.77
2017-01-30T02:17:23.175Z,4.87
2017-01-30T02:18:23.194Z,4.87
2017-01-30T02:19:23.206Z,4.87
2017-01-30T02:20:23.293Z,4.82
2017-01-30T02:21:23.248Z,4.86
2017-01-30T02:22:23.230Z,4.82
2017-01-30T02:23:23.241Z,4.8
2017-01-30T02:24:23.251Z,4.86
2017-01-30T02:25:23.269Z,4.82
2017-01-30T02:26:23.273Z,4.68
2017-01-30T02:27:23.286Z,4.75
2017-01-30T02:28:23.301Z,4.75
2017-01-30T02:29:23.329Z,4.67
2017-01-30T02:30:23.323Z,4.82
2017-01-30T02:31:23.330Z,4.7
2017-01-30T02:32:23.346Z,4.78
2017-01-30T02:33:23.352Z,4.66
2017-01-30T02:34:23.363Z,4.75
2017-01-30T02:35:22.976Z,4.7
2017-01-30T02:36:23.383Z,4.67
2017-01-30T02:37:23.394Z,4.7
2017-01-30T02:38:23.407Z,4.71
2017-01-30T02:39:23.412Z,4.71
2017-01-30T02:40:23.421Z,4.7
2017-01-30T02:41:23.432Z,4.73
2017-01-30T02:42:23.443Z,4.7
2017-01-30T02:43:23.460Z,4.7
2017-01-30T02:44:23.075Z,4.67
2017-01-30T02:45:23.473Z,4.67
2017-01-30T02:46:23.487Z,4.74
2017-01-30T02:47:23.494Z,4.63
2017-01-30T02:48:23.115Z,4.74
2017-01-30T02:49:23.125Z,4.68
2017-01-30T02:50:23.542Z,4.71
2017-01-30T02:51:23.534Z,4.58
2017-01-30T02:52:23.548Z,4.71
2017-01-30T02:53:23.558Z,4.71
2017-01-30T02:54:23.567Z,4.58
2017-01-30T02:55:23.580Z,4.67
2017-01-30T02:56:23.594Z,4.62
2017-01-30T02:57:23.609Z,4.6
2017-01-30T02:58:23.611Z,4.6
2017-01-30T02:59:23.629Z,4.73
2017-01-30T03:00:23.641Z,4.58
2017-01-30T03:01:23.650Z,4.56
2017-01-30T03:02:23.658Z,4.56
2017-01-30T03:03:23.662Z,4.56
2017-01-30T03:04:23.702Z,4.75
2017-01-30T03:05:23.681Z,4.55
2017-01-30T03:06:23.699Z,4.59
2017-01-30T03:07:23.705Z,4.56
2017-01-30T03:08:23.714Z,4.63
2017-01-30T03:09:23.729Z,4.63
2017-01-30T03:10:23.747Z,4.58
2017-01-30T03:11:23.756Z,4.55
2017-01-30T03:12:23.760Z,4.58
2017-01-30T03:13:23.378Z,4.62
2017-01-30T03:14:23.775Z,4.59
2017-01-30T03:15:23.788Z,4.63
2017-01-30T03:16:23.416Z,4.59
2017-01-30T03:17:23.819Z,4.62
2017-01-30T03:18:23.823Z,4.6
2017-01-30T03:19:23.837Z,4.59
2017-01-30T03:20:23.842Z,4.58
2017-01-30T03:21:23.885Z,4.55
2017-01-30T03:22:23.468Z,4.59
2017-01-30T03:23:23.873Z,4.56
2017-01-30T03:24:23.887Z,4.56
2017-01-30T03:25:23.900Z,4.49
2017-01-30T03:26:23.930Z,4.6
2017-01-30T03:27:23.914Z,4.56
2017-01-30T03:28:23.936Z,4.6
2017-01-30T03:29:23.936Z,4.53
2017-01-30T03:30:23.949Z,4.56
2017-01-30T03:31:23.954Z,4.58
2017-01-30T03:32:23.576Z,4.58
2017-01-30T03:33:23.975Z,4.53
2017-01-30T03:34:23.985Z,4.58
2017-01-30T03:35:23.996Z,4.53
2017-01-30T03:36:24.011Z,4.55
2017-01-30T03:37:24.021Z,4.53
2017-01-30T03:38:24.035Z,4.55
2017-01-30T03:39:24.040Z,4.49
2017-01-30T03:40:24.049Z,4.49
2017-01-30T03:41:24.063Z,4.5
2017-01-30T03:42:24.074Z,4.5
2017-01-30T03:43:24.080Z,4.53
2017-01-30T03:44:24.092Z,4.53
2017-01-30T03:45:23.864Z,4.55
2017-01-30T03:46:24.111Z,4.48
2017-01-30T03:47:23.736Z,4.45
2017-01-30T03:48:24.130Z,4.58
2017-01-30T03:49:24.147Z,4.53
2017-01-30T03:50:24.155Z,4.42
2017-01-30T03:51:24.164Z,4.49
2017-01-30T03:52:24.174Z,4.5
2017-01-30T03:53:24.182Z,4.49
2017-01-30T03:54:24.193Z,4.53
2017-01-30T03:55:24.208Z,4.5
2017-01-30T03:56:23.824Z,4.49
2017-01-30T03:57:24.230Z,4.53
2017-01-30T03:58:24.243Z,4.53
2017-01-30T03:59:24.257Z,4.49
2017-01-30T04:00:23.863Z,4.45
2017-01-30T04:01:24.267Z,4.42
2017-01-30T04:02:24.279Z,4.49
2017-01-30T04:03:24.299Z,4.44
2017-01-30T04:04:24.307Z,4.44
2017-01-30T04:05:24.307Z,4.5
2017-01-30T04:06:23.923Z,4.48
2017-01-30T04:07:24.353Z,4.45
2017-01-30T04:08:24.343Z,4.55
2017-01-30T04:09:24.349Z,4.48
2017-01-30T04:10:24.372Z,4.52
2017-01-30T04:11:23.977Z,4.48
2017-01-30T04:12:24.388Z,4.52
2017-01-30T04:13:24.386Z,4.5
2017-01-30T04:14:24.403Z,4.48
2017-01-30T04:15:24.420Z,4.48
2017-01-30T04:16:24.032Z,4.48
2017-01-30T04:17:24.434Z,4.55
2017-01-30T04:18:24.056Z,4.48
2017-01-30T04:19:24.454Z,4.49
2017-01-30T04:20:24.464Z,4.53
2017-01-30T04:21:24.487Z,4.42
2017-01-30T04:22:24.088Z,4.48
2017-01-30T04:23:24.525Z,4.49
2017-01-30T04:24:24.111Z,4.55
2017-01-30T04:25:24.523Z,4.45
2017-01-30T04:26:24.532Z,4.53
2017-01-30T04:27:24.538Z,4.55
2017-01-30T04:28:24.546Z,4.52
2017-01-30T04:29:24.166Z,4.53
2017-01-30T04:30:24.174Z,4.52
2017-01-30T04:31:24.578Z,4.56
2017-01-30T04:32:24.586Z,4.5
2017-01-30T04:33:24.602Z,4.55
2017-01-30T04:34:24.612Z,4.48
2017-01-30T04:35:24.617Z,4.5
2017-01-30T04:36:24.234Z,4.55
2017-01-30T04:37:24.669Z,4.59
2017-01-30T04:38:24.656Z,4.56
2017-01-30T04:39:24.658Z,4.5
2017-01-30T04:40:24.666Z,4.49
2017-01-30T04:41:24.685Z,4.5
2017-01-30T04:42:24.300Z,4.5
2017-01-30T04:43:24.313Z,4.49
2017-01-30T04:44:24.711Z,4.5
2017-01-30T04:45:24.722Z,4.49
2017-01-30T04:46:24.339Z,4.5
2017-01-30T04:47:23.957Z,4.45
2017-01-30T04:48:24.751Z,4.5
2017-01-30T04:49:24.766Z,4.49
2017-01-30T04:50:24.774Z,4.5
2017-01-30T04:51:24.389Z,4.5
2017-01-30T04:52:24.792Z,4.59
2017-01-30T04:53:24.412Z,4.44
2017-01-30T04:54:24.818Z,4.49
2017-01-30T04:55:24.442Z,4.52
2017-01-30T04:56:24.832Z,4.45
2017-01-30T04:57:24.849Z,4.48
2017-01-30T04:58:24.858Z,4.52
2017-01-30T04:59:24.872Z,4.49
2017-01-30T05:00:24.879Z,4.5
2017-01-30T05:01:24.493Z,4.5
2017-01-30T05:02:24.894Z,4.44
2017-01-30T05:03:24.902Z,4.5
2017-01-30T05:04:24.920Z,4.44
2017-01-30T05:05:24.926Z,4.48
2017-01-30T05:06:24.936Z,4.44
2017-01-30T05:07:24.956Z,4.53
2017-01-30T05:08:24.957Z,4.48
2017-01-30T05:09:24.971Z,4.5
2017-01-30T05:10:24.977Z,4.49
2017-01-30T05:11:24.993Z,4.42
2017-01-30T05:12:25.001Z,4.45
2017-01-30T05:13:25.015Z,4.5
2017-01-30T05:14:25.015Z,4.45
2017-01-30T05:15:24.640Z,4.55
2017-01-30T05:16:25.047Z,4.5
2017-01-30T05:17:25.055Z,4.44
2017-01-30T05:18:25.059Z,4.49
2017-01-30T05:19:25.101Z,4.49
2017-01-30T05:20:25.104Z,4.45
2017-01-30T05:21:25.095Z,4.45
2017-01-30T05:22:25.108Z,4.41
2017-01-30T05:23:24.720Z,4.4
2017-01-30T05:24:25.121Z,4.48
2017-01-30T05:25:24.735Z,4.42
2017-01-30T05:26:25.148Z,4.48
2017-01-30T05:27:25.155Z,4.42
2017-01-30T05:28:24.772Z,4.41
2017-01-30T05:29:24.776Z,4.44
2017-01-30T05:30:25.188Z,4.44
2017-01-30T05:31:25.198Z,4.42
2017-01-30T05:32:25.212Z,4.44
2017-01-30T05:33:25.217Z,4.31
2017-01-30T05:34:25.225Z,4.32
2017-01-30T05:35:25.236Z,4.41
2017-01-30T05:36:25.254Z,4.41
2017-01-30T05:37:25.254Z,4.32
2017-01-30T05:38:25.265Z,4.4
2017-01-30T05:39:25.279Z,4.4
2017-01-30T05:40:24.891Z,4.32
2017-01-30T05:41:25.298Z,4.4
2017-01-30T05:42:25.306Z,4.32
2017-01-30T05:43:25.323Z,4.34
2017-01-30T05:44:24.939Z,4.35
2017-01-30T05:45:25.335Z,4.32
2017-01-30T05:46:25.356Z,4.34
2017-01-30T05:47:25.366Z,4.34
2017-01-30T05:48:25.369Z,4.34
2017-01-30T05:49:25.381Z,4.35
2017-01-30T05:50:25.391Z,4.34
2017-01-30T05:51:25.402Z,4.34
2017-01-30T05:52:25.422Z,4.32
2017-01-30T05:53:25.427Z,4.31
2017-01-30T05:54:25.439Z,4.34
2017-01-30T05:55:25.445Z,4.4
2017-01-30T05:56:25.058Z,4.31
2017-01-30T05:57:25.455Z,4.31
2017-01-30T05:58:25.476Z,4.37
2017-01-30T05:59:25.486Z,4.28
2017-01-30T06:00:25.494Z,4.26
2017-01-30T06:01:25.507Z,4.35
2017-01-30T06:02:25.511Z,4.3
2017-01-30T06:03:25.525Z,4.28
2017-01-30T06:04:25.535Z,4.31
2017-01-30T06:05:25.545Z,4.34
2017-01-30T06:06:25.579Z,4.31
2017-01-30T06:07:25.572Z,4.32
2017-01-30T06:08:25.193Z,4.3
2017-01-30T06:09:25.588Z,4.3
2017-01-30T06:10:25.204Z,4.3
2017-01-30T06:11:25.607Z,4.31
2017-01-30T06:12:25.617Z,4.3
2017-01-30T06:13:25.651Z,4.26
2017-01-30T06:14:25.638Z,4.23
2017-01-30T06:15:25.656Z,4.35
2017-01-30T06:16:25.659Z,4.28
2017-01-30T06:17:25.666Z,4.34
2017-01-30T06:18:25.680Z,4.34
2017-01-30T06:19:25.685Z,4.3
2017-01-30T06:20:25.696Z,4.31
2017-01-30T06:21:25.704Z,4.3
2017-01-30T06:22:25.721Z,4.28
2017-01-30T06:23:25.731Z,4.19
2017-01-30T06:24:25.741Z,4.31
2017-01-30T06:25:25.744Z,4.32
2017-01-30T06:26:25.757Z,4.31
2017-01-30T06:27:25.374Z,4.26
2017-01-30T06:28:25.394Z,4.32
2017-01-30T06:29:25.787Z,4.32
2017-01-30T06:30:25.798Z,4.28
2017-01-30T06:31:25.841Z,4.19
2017-01-30T06:32:25.833Z,4.34
2017-01-30T06:33:25.831Z,4.17
2017-01-30T06:34:25.839Z,4.22
2017-01-30T06:35:25.461Z,4.22
2017-01-30T06:36:25.859Z,4.2
2017-01-30T06:37:25.870Z,4.22
2017-01-30T06:38:25.485Z,4.24
2017-01-30T06:39:25.894Z,4.17
2017-01-30T06:40:25.899Z,4.17
2017-01-30T06:41:25.941Z,4.19
2017-01-30T06:42:25.950Z,4.22
2017-01-30T06:43:25.928Z,4.2
2017-01-30T06:44:25.938Z,4.22
2017-01-30T06:45:25.949Z,4.23
2017-01-30T06:46:25.961Z,4.19
2017-01-30T06:47:25.583Z,4.22
2017-01-30T06:48:25.991Z,4.22
2017-01-30T06:49:26.001Z,4.22
2017-01-30T06:50:26.004Z,4.22
2017-01-30T06:51:26.012Z,4.31
2017-01-30T06:52:26.027Z,4.19
2017-01-30T06:53:26.061Z,4.22
2017-01-30T06:54:26.037Z,4.23
2017-01-30T06:55:26.052Z,4.24
2017-01-30T06:56:26.061Z,4.28
2017-01-30T06:57:25.682Z,4.23
2017-01-30T06:58:26.088Z,4.31
2017-01-30T06:59:25.703Z,4.32
2017-01-30T07:00:26.108Z,4.32
2017-01-30T07:01:26.118Z,4.22
2017-01-30T07:02:26.121Z,4.3
2017-01-30T07:03:26.133Z,4.32
2017-01-30T07:04:26.146Z,4.22
2017-01-30T07:05:26.161Z,4.14
2017-01-30T07:06:25.770Z,4.31
2017-01-30T07:07:25.779Z,4.32
2017-01-30T07:08:26.191Z,4.35
2017-01-30T07:09:25.799Z,4.31
2017-01-30T07:10:26.208Z,4.24
2017-01-30T07:11:26.221Z,4.31
2017-01-30T07:12:26.225Z,4.31
2017-01-30T07:13:26.242Z,4.24
2017-01-30T07:14:26.245Z,4.28
2017-01-30T07:15:26.262Z,4.32
2017-01-30T07:16:25.874Z,4.35
2017-01-30T07:17:26.273Z,4.26
2017-01-30T07:18:26.296Z,4.32
2017-01-30T07:19:26.299Z,4.31
2017-01-30T07:20:26.303Z,4.28
2017-01-30T07:21:26.315Z,4.37
2017-01-30T07:22:26.328Z,4.38
2017-01-30T07:23:26.351Z,4.4
2017-01-30T07:24:26.358Z,4.35
2017-01-30T07:25:26.359Z,4.4
2017-01-30T07:26:26.372Z,4.34
2017-01-30T07:27:26.381Z,4.32
2017-01-30T07:28:26.401Z,4.31
2017-01-30T07:29:26.398Z,4.32
2017-01-30T07:30:26.413Z,4.38
2017-01-30T07:31:26.444Z,4.32
2017-01-30T07:32:26.429Z,4.4
2017-01-30T07:33:26.442Z,4.4
2017-01-30T07:34:26.453Z,4.42
2017-01-30T07:35:26.467Z,4.4
2017-01-30T07:36:26.478Z,4.4
2017-01-30T07:37:26.482Z,4.38
2017-01-30T07:38:26.492Z,4.37
2017-01-30T07:39:26.504Z,4.37
2017-01-30T07:40:26.516Z,4.45
2017-01-30T07:41:26.533Z,4.41
2017-01-30T07:42:26.138Z,4.5
2017-01-30T07:43:26.545Z,4.52
2017-01-30T07:44:26.563Z,4.49
2017-01-30T07:45:26.567Z,4.48
2017-01-30T07:46:26.584Z,4.44
2017-01-30T07:47:26.601Z,4.44
2017-01-30T07:48:26.599Z,4.49
2017-01-30T07:49:26.601Z,4.52
2017-01-30T07:50:26.219Z,4.4
2017-01-30T07:51:26.620Z,4.49
2017-01-30T07:52:26.240Z,4.53
2017-01-30T07:53:26.643Z,4.45
2017-01-30T07:54:26.665Z,4.49
2017-01-30T07:55:26.272Z,4.53
2017-01-30T07:56:26.675Z,4.55
2017-01-30T07:57:26.696Z,4.55
2017-01-30T07:58:26.693Z,4.55
2017-01-30T07:59:26.705Z,4.6
2017-01-30T08:00:26.325Z,4.59
2017-01-30T08:01:26.729Z,4.6
2017-01-30T08:02:26.741Z,4.62
2017-01-30T08:03:26.752Z,4.55
2017-01-30T08:04:26.362Z,4.55
2017-01-30T08:05:26.773Z,4.59
2017-01-30T08:06:26.771Z,4.58
2017-01-30T08:07:26.786Z,4.58
2017-01-30T08:08:26.408Z,4.68
2017-01-30T08:09:26.811Z,4.74
2017-01-30T08:10:26.820Z,4.58
2017-01-30T08:11:26.829Z,4.67
2017-01-30T08:12:26.841Z,4.67
2017-01-30T08:13:26.881Z,4.71
2017-01-30T08:14:26.862Z,4.71
2017-01-30T08:15:26.867Z,4.71
2017-01-30T08:16:26.913Z,4.66
2017-01-30T08:17:26.891Z,4.68
2017-01-30T08:18:26.904Z,4.71
2017-01-30T08:19:26.926Z,4.7
2017-01-30T08:20:26.929Z,4.73
2017-01-30T08:21:26.933Z,4.67
2017-01-30T08:22:26.941Z,4.67
2017-01-30T08:23:26.955Z,4.67
2017-01-30T08:24:26.968Z,4.8
2017-01-30T08:25:26.982Z,4.86
2017-01-30T08:26:26.987Z,4.77
2017-01-30T08:27:27.025Z,4.68
2017-01-30T08:28:27.044Z,4.82
2017-01-30T08:29:27.013Z,4.68
2017-01-30T08:30:27.023Z,4.78
2017-01-30T08:31:27.037Z,4.68
2017-01-30T08:32:27.046Z,4.71
2017-01-30T08:33:27.055Z,4.67
2017-01-30T08:34:27.073Z,4.67
2017-01-30T08:35:27.081Z,4.8
2017-01-30T08:36:27.127Z,4.78
2017-01-30T08:37:27.110Z,4.77
2017-01-30T08:38:27.113Z,4.74
2017-01-30T08:39:27.120Z,4.78
2017-01-30T08:40:27.125Z,4.82
2017-01-30T08:41:27.142Z,4.86
2017-01-30T08:42:27.153Z,4.82
2017-01-30T08:43:27.158Z,4.87
2017-01-30T08:44:27.174Z,4.86
2017-01-30T08:45:27.182Z,4.84
2017-01-30T08:46:27.192Z,4.82
2017-01-30T08:47:27.209Z,4.82
2017-01-30T08:48:27.212Z,4.86
2017-01-30T08:49:27.221Z,4.86
2017-01-30T08:50:27.230Z,4.92
2017-01-30T08:51:27.246Z,4.86
2017-01-30T08:52:27.254Z,4.84
2017-01-30T08:53:27.265Z,4.93
2017-01-30T08:54:27.280Z,4.94
2017-01-30T08:55:27.288Z,4.99
2017-01-30T08:56:27.297Z,4.97
2017-01-30T08:57:27.311Z,5.05
2017-01-30T08:58:27.322Z,5.05
2017-01-30T08:59:27.330Z,5.02
2017-01-30T09:00:27.338Z,4.96
2017-01-30T09:01:27.345Z,5
2017-01-30T09:02:27.359Z,5.1
2017-01-30T09:03:27.376Z,5.1
2017-01-30T09:04:26.988Z,5.12
2017-01-30T09:05:27.390Z,5.12
2017-01-30T09:06:27.003Z,5.1
2017-01-30T09:07:27.415Z,5.08
2017-01-30T09:08:27.427Z,5.18
2017-01-30T09:09:27.444Z,5.18
2017-01-30T09:10:27.444Z,5.21
2017-01-30T09:11:27.456Z,5.23
2017-01-30T09:12:27.073Z,5.21
2017-01-30T09:13:27.477Z,5.21
2017-01-30T09:14:27.486Z,5.23
2017-01-30T09:15:27.502Z,5.23
2017-01-30T09:16:27.503Z,5.29
2017-01-30T09:17:27.515Z,5.33
2017-01-30T09:18:27.532Z,5.38
2017-01-30T09:19:27.541Z,5.3
2017-01-30T09:20:27.552Z,5.32
2017-01-30T09:21:27.558Z,5.39
2017-01-30T09:22:27.573Z,5.29
2017-01-30T09:23:27.184Z,5.36
2017-01-30T09:24:27.591Z,5.36
2017-01-30T09:25:27.604Z,5.41
2017-01-30T09:26:27.611Z,5.36
2017-01-30T09:27:27.620Z,5.39
2017-01-30T09:28:27.661Z,5.43
2017-01-30T09:29:27.252Z,5.46
2017-01-30T09:30:27.662Z,5.47
2017-01-30T09:31:27.676Z,5.48
2017-01-30T09:32:27.675Z,5.43
2017-01-30T09:33:27.686Z,5.48
2017-01-30T09:34:27.700Z,5.5
2017-01-30T09:35:27.714Z,5.5
2017-01-30T09:36:27.327Z,5.5
2017-01-30T09:37:27.731Z,5.53
2017-01-30T09:38:27.742Z,5.53
2017-01-30T09:39:27.751Z,5.53
2017-01-30T09:40:27.764Z,5.59
2017-01-30T09:41:27.376Z,5.59
2017-01-30T09:42:27.393Z,5.64
2017-01-30T09:43:27.801Z,5.65
2017-01-30T09:44:27.813Z,5.64
2017-01-30T09:45:27.821Z,5.72
2017-01-30T09:46:27.836Z,5.65
2017-01-30T09:47:27.841Z,5.65
2017-01-30T09:48:27.850Z,5.68
2017-01-30T09:49:27.863Z,5.72
2017-01-30T09:50:27.880Z,5.75
2017-01-30T09:51:27.882Z,5.72
2017-01-30T09:52:27.895Z,5.72
2017-01-30T09:53:27.908Z,5.66
2017-01-30T09:54:27.916Z,5.72
2017-01-30T09:55:27.922Z,5.75
2017-01-30T09:56:27.541Z,5.82
2017-01-30T09:57:27.953Z,5.75
2017-01-30T09:58:27.966Z,5.73
2017-01-30T09:59:27.978Z,5.73
2017-01-30T10:00:27.979Z,5.79
2017-01-30T10:01:27.991Z,5.76
2017-01-30T10:02:28.005Z,5.79
2017-01-30T10:03:28.014Z,5.82
2017-01-30T10:04:27.630Z,5.79
2017-01-30T10:05:28.040Z,5.82
2017-01-30T10:06:28.049Z,5.84
2017-01-30T10:07:28.062Z,5.82
2017-01-30T10:08:28.071Z,5.83
2017-01-30T10:09:28.079Z,5.89
2017-01-30T10:10:27.719Z,5.9
2017-01-30T10:11:28.095Z,5.94
2017-01-30T10:12:28.117Z,5.91
2017-01-30T10:13:28.126Z,5.9
2017-01-30T10:14:27.739Z,6.01
2017-01-30T10:15:28.144Z,5.87
2017-01-30T10:16:28.208Z,5.99
2017-01-30T10:17:28.164Z,5.93
2017-01-30T10:18:28.180Z,5.89
2017-01-30T10:19:27.797Z,5.93
2017-01-30T10:20:28.208Z,5.94
2017-01-30T10:21:28.218Z,5.9
2017-01-30T10:22:28.223Z,6.01
2017-01-30T10:23:28.237Z,5.98
2017-01-30T10:24:28.251Z,5.97
2017-01-30T10:25:28.262Z,5.97
2017-01-30T10:26:28.270Z,6.01
2017-01-30T10:27:28.279Z,5.93
2017-01-30T10:28:28.294Z,5.94
2017-01-30T10:29:28.310Z,6.05
2017-01-30T10:30:28.317Z,5.99
2017-01-30T10:31:28.325Z,5.94
2017-01-30T10:32:28.338Z,6.05
2017-01-30T10:33:28.347Z,6.04
2017-01-30T10:34:28.355Z,5.99
2017-01-30T10:35:28.371Z,6.08
2017-01-30T10:36:28.382Z,6.08
2017-01-30T10:37:28.390Z,6.01
2017-01-30T10:38:28.416Z,6.09
2017-01-30T10:39:28.414Z,6.07
2017-01-30T10:40:28.430Z,6.04
2017-01-30T10:41:28.432Z,6.17
2017-01-30T10:42:28.449Z,6.07
2017-01-30T10:43:28.461Z,6.11
2017-01-30T10:44:28.471Z,6.16
2017-01-30T10:45:28.479Z,6.12
2017-01-30T10:46:28.507Z,6.09
2017-01-30T10:47:28.505Z,6.16
2017-01-30T10:48:28.518Z,6.17
2017-01-30T10:49:28.529Z,6.17
2017-01-30T10:50:28.538Z,6.11
2017-01-30T10:51:28.556Z,6.3
2017-01-30T10:52:28.564Z,6.24
2017-01-30T10:53:28.578Z,6.27
2017-01-30T10:54:28.190Z,6.26
2017-01-30T10:55:28.606Z,6.28
2017-01-30T10:56:28.606Z,6.22
2017-01-30T10:57:28.225Z,6.22
2017-01-30T10:58:28.632Z,6.31
2017-01-30T10:59:28.641Z,6.26
2017-01-30T11:00:28.652Z,6.33
2017-01-30T11:01:28.663Z,6.17
2017-01-30T11:02:28.686Z,6.28
2017-01-30T11:03:28.688Z,6.26
2017-01-30T11:04:28.697Z,6.17
2017-01-30T11:05:28.746Z,6.26
2017-01-30T11:06:28.722Z,6.26
2017-01-30T11:07:28.733Z,6.35
2017-01-30T11:08:28.749Z,6.3
2017-01-30T11:09:28.759Z,6.27
2017-01-30T11:10:28.765Z,6.26
2017-01-30T11:11:28.779Z,6.28
2017-01-30T11:12:28.789Z,6.3
2017-01-30T11:13:28.803Z,6.27
2017-01-30T11:14:28.814Z,6.28
2017-01-30T11:15:28.827Z,6.41
2017-01-30T11:16:28.843Z,6.39
2017-01-30T11:17:28.848Z,6.33
2017-01-30T11:18:28.868Z,6.28
2017-01-30T11:19:28.480Z,6.44
2017-01-30T11:20:28.491Z,6.36
2017-01-30T11:21:28.897Z,6.36
2017-01-30T11:22:28.945Z,6.39
2017-01-30T11:23:28.914Z,6.36
2017-01-30T11:24:28.538Z,6.36
2017-01-30T11:25:28.969Z,6.33
2017-01-30T11:26:28.954Z,6.36
2017-01-30T11:27:28.964Z,6.39
2017-01-30T11:28:28.976Z,6.3
2017-01-30T11:29:28.993Z,6.42
2017-01-30T11:30:29.002Z,6.33
2017-01-30T11:31:29.010Z,6.31
2017-01-30T11:32:28.634Z,6.48
2017-01-30T11:33:29.030Z,6.38
2017-01-30T11:34:29.044Z,6.46
2017-01-30T11:35:29.055Z,6.38
2017-01-30T11:36:28.670Z,6.3
2017-01-30T11:37:29.083Z,6.33
2017-01-30T11:38:29.094Z,6.3
2017-01-30T11:39:29.102Z,6.38
2017-01-30T11:40:29.122Z,6.3
2017-01-30T11:41:29.125Z,6.33
2017-01-30T11:42:29.132Z,6.39
2017-01-30T11:43:29.158Z,6.39
2017-01-30T11:44:29.158Z,6.33
2017-01-30T11:45:29.194Z,6.36
2017-01-30T11:46:29.181Z,6.39
2017-01-30T11:47:29.196Z,6.41
2017-01-30T11:48:28.447Z,6.3
2017-01-30T11:49:29.227Z,6.36
2017-01-30T11:50:29.231Z,6.3
2017-01-30T11:51:28.849Z,6.36
2017-01-30T11:52:28.863Z,6.33
2017-01-30T11:53:29.265Z,6.39
2017-01-30T11:54:29.277Z,6.36
2017-01-30T11:55:29.302Z,6.3
2017-01-30T11:56:29.303Z,6.39
2017-01-30T11:57:29.311Z,6.33
2017-01-30T11:58:29.322Z,6.41
2017-01-30T11:59:29.335Z,6.41
2017-01-30T12:00:28.948Z,6.33
2017-01-30T12:01:28.959Z,6.33
2017-01-30T12:02:29.377Z,6.41
2017-01-30T12:03:29.379Z,6.42
2017-01-30T12:04:29.393Z,6.35
2017-01-30T12:05:29.409Z,6.38
2017-01-30T12:06:29.417Z,6.27
2017-01-30T12:07:29.429Z,6.3
2017-01-30T12:08:29.042Z,6.36
2017-01-30T12:09:29.454Z,6.38
2017-01-30T12:10:29.465Z,6.31
2017-01-30T12:11:29.482Z,6.45
2017-01-30T12:12:29.490Z,6.35
2017-01-30T12:13:29.106Z,6.35
2017-01-30T12:14:29.509Z,6.35
2017-01-30T12:15:29.520Z,6.33
2017-01-30T12:16:29.537Z,6.35
2017-01-30T12:17:29.542Z,6.35
2017-01-30T12:18:29.562Z,6.33
2017-01-30T12:19:29.566Z,6.3
2017-01-30T12:20:29.189Z,6.33
2017-01-30T12:21:29.195Z,6.39
2017-01-30T12:22:29.214Z,6.3
2017-01-30T12:23:29.612Z,6.46
2017-01-30T12:24:29.634Z,6.45
2017-01-30T12:25:29.636Z,6.35
2017-01-30T12:26:29.646Z,6.49
2017-01-30T12:27:29.659Z,6.48
2017-01-30T12:28:29.676Z,6.51
2017-01-30T12:29:29.715Z,6.49
2017-01-30T12:30:29.695Z,6.45
2017-01-30T12:31:29.713Z,6.51
2017-01-30T12:32:29.724Z,6.57
2017-01-30T12:33:29.340Z,6.54
2017-01-30T12:34:29.740Z,6.54
2017-01-30T12:35:29.361Z,6.54
2017-01-30T12:36:29.764Z,6.49
2017-01-30T12:37:29.793Z,6.54
2017-01-30T12:38:29.789Z,6.57
2017-01-30T12:39:29.802Z,6.63
2017-01-30T12:40:29.843Z,6.63
2017-01-30T12:41:29.827Z,6.67
2017-01-30T12:42:29.855Z,6.64
2017-01-30T12:43:29.851Z,6.74
2017-01-30T12:44:29.859Z,6.6
2017-01-30T12:45:29.877Z,6.64
2017-01-30T12:46:29.885Z,6.64
2017-01-30T12:47:29.930Z,6.6
2017-01-30T12:48:29.513Z,6.62
2017-01-30T12:49:29.927Z,6.6
2017-01-30T12:50:29.930Z,6.67
2017-01-30T12:51:29.945Z,6.78
2017-01-30T12:52:29.954Z,6.7
2017-01-30T12:53:29.970Z,6.67
2017-01-30T12:54:29.976Z,6.75
2017-01-30T12:55:29.989Z,6.75
2017-01-30T12:56:30.010Z,6.79
2017-01-30T12:57:30.019Z,6.7
2017-01-30T12:58:30.025Z,6.69
2017-01-30T12:59:30.041Z,6.67
2017-01-30T13:00:30.056Z,6.74
2017-01-30T13:01:30.062Z,6.77
2017-01-30T13:02:29.686Z,6.72
2017-01-30T13:03:30.090Z,6.78
2017-01-30T13:04:30.094Z,6.72
2017-01-30T13:05:30.111Z,6.74
2017-01-30T13:06:30.131Z,6.81
2017-01-30T13:07:30.140Z,6.75
2017-01-30T13:08:30.146Z,6.75
2017-01-30T13:09:30.162Z,6.69
2017-01-30T13:10:30.171Z,6.79
2017-01-30T13:11:30.187Z,6.77
2017-01-30T13:12:30.198Z,6.67
2017-01-30T13:13:30.214Z,6.74
2017-01-30T13:14:30.248Z,6.7
2017-01-30T13:15:30.232Z,6.7
2017-01-30T13:16:30.256Z,6.69
2017-01-30T13:17:30.255Z,6.77
2017-01-30T13:18:30.265Z,6.69
2017-01-30T13:19:30.283Z,6.7
2017-01-30T13:20:30.311Z,6.63
2017-01-30T13:21:29.934Z,6.69
2017-01-30T13:22:30.319Z,6.6